logo tempoitalia

Diretta Meteo Alghero, Italiamercoledì 12 agosto ore 02:20

Mappa
Sereno 23 °C Sereno 24 Ore: T.min 19 T.max 34
Ponente Nord-Est Km/h 7.4 Punto di rugiada: 21 °C Umidità: 88% Visibilità: 10 Km
Il sole sorge alle: 06:33 Il sole tramonta alle: 20:30
12 Agosto 2020 02:20 tempo osservato: Sereno Sereno 23 88 1015 vento: Nord NE 7.4
12 Agosto 2020 01:50 tempo osservato: Sereno Sereno 23 88 1015 vento: Nord NE 13
12 Agosto 2020 01:20 tempo osservato: Sereno Sereno 23 83 1015 vento: Nord NE 9.3
12 Agosto 2020 00:50 tempo osservato: Sereno Sereno 24 78 1015 vento: Nord N 11.1
12 Agosto 2020 00:20 tempo osservato: Sereno Sereno 23 83 1015 vento: Nord NE 9.3
11 Agosto 2020 23:50 tempo osservato: Sereno Sereno 24 83 1015 vento: Nord N 5.5
11 Agosto 2020 23:20 tempo osservato: Sereno Sereno 24 88 1015 vento: Nord N/NE 7.4
11 Agosto 2020 22:50 tempo osservato: Sereno Sereno 24 88 1015 vento: Nord N 5.5
11 Agosto 2020 21:50 tempo osservato: Sereno Sereno 26 73 1015 vento: Nord N 5.5
11 Agosto 2020 21:20 tempo osservato: Sereno Sereno 26 69 1015 vento: Nord N/NE 9.3
11 Agosto 2020 20:50 tempo osservato: Sereno Sereno 27 65 1015 vento: Nord N/NE 13
11 Agosto 2020 19:50 tempo osservato: Sereno Sereno 30 55 1015 vento: Nord NE 16.7
11 Agosto 2020 19:20 tempo osservato: Sereno Sereno 31 48 1015 vento: Nord NE 18.5
11 Agosto 2020 18:50 tempo osservato: Sereno Sereno 32 43 1015 vento: Nord N 11.1
11 Agosto 2020 18:20 tempo osservato: Sereno Sereno 33 41 1014 vento: Nord O 13
11 Agosto 2020 17:50 tempo osservato: Sereno Sereno 33 38 1014 vento: Nord O 14.8
11 Agosto 2020 17:20 tempo osservato: Sereno Sereno 33 38 1014 vento: Nord O/NO 14.8
11 Agosto 2020 16:50 tempo osservato: Sereno Sereno 33 38 1015 vento: Nord O/NO 14.8
11 Agosto 2020 16:20 tempo osservato: Sereno Sereno 34 34 1015 vento: Nord O/NO 14.8
11 Agosto 2020 15:20 tempo osservato: Sereno Sereno 34 36 1016 vento: Nord O/NO 14.8
11 Agosto 2020 14:50 tempo osservato: Sereno Sereno 34 34 1016 vento: Nord S/SO 11.1
11 Agosto 2020 14:20 tempo osservato: Sereno Sereno 34 32 1016 vento: Nord S 14.8
11 Agosto 2020 13:50 tempo osservato: Sereno Sereno 34 34 1016 vento: Nord S 16.7
11 Agosto 2020 13:20 tempo osservato: Sereno Sereno 34 34 1016 vento: Nord N 9.3
11 Agosto 2020 12:50 tempo osservato: Poco Nuvoloso Poco Nuvoloso 33 38 1016 vento: Nord S 14.8
11 Agosto 2020 12:20 tempo osservato: Sereno Sereno 34 30 1016 vento: Nord N 3.7
11 Agosto 2020 11:50 tempo osservato: Sereno Sereno 32 33 1016 vento: Nord O/NO 9.3
11 Agosto 2020 11:20 tempo osservato: Sereno Sereno 32 38 1016 vento: Nord O 11.1
11 Agosto 2020 10:50 tempo osservato: Sereno Sereno 31 35 1016 vento: Nord N 5.5
11 Agosto 2020 10:20 tempo osservato: Sereno Sereno 30 45 1016 vento: Nord N 3.7
11 Agosto 2020 09:50 tempo osservato: Sereno Sereno 29 51 1016 vento: Nord N 1.8
11 Agosto 2020 09:20 tempo osservato: Sereno Sereno 27 65 1015 vento: Nord E/NE 7.4
11 Agosto 2020 08:50 tempo osservato: Sereno Sereno 25 69 1015 vento: Nord N 3.7
11 Agosto 2020 08:20 tempo osservato: Sereno Sereno 22 78 1015 vento: Nord N 5.5
11 Agosto 2020 06:50 tempo osservato: Sereno Sereno 19 88 1015 vento: Nord N 1.8
11 Agosto 2020 06:20 tempo osservato: Sereno Sereno 19 93 1015 vento: Nord N 1.8
11 Agosto 2020 05:50 tempo osservato: Sereno Sereno 20 88 1015 vento: Nord N 3.7
11 Agosto 2020 05:20 tempo osservato: Sereno Sereno 20 88 1015 vento: Nord N 1.8
11 Agosto 2020 04:50 tempo osservato: Sereno Sereno 20 88 1015 vento: Nord N 3.7
11 Agosto 2020 02:50 tempo osservato: Sereno Sereno 21 94 1015 vento: Nord N 3.7